createdAt,value
2019-02-21T00:00:55.289Z,7.19
2019-02-21T00:01:55.402Z,7.16
2019-02-21T00:02:55.536Z,7.19
2019-02-21T00:03:55.657Z,7.21
2019-02-21T00:04:55.805Z,7.15
2019-02-21T00:05:55.926Z,7.15
2019-02-21T00:06:56.056Z,7.18
2019-02-21T00:07:56.183Z,7.21
2019-02-21T00:08:56.328Z,7.22
2019-02-21T00:09:56.448Z,7.21
2019-02-21T00:10:56.587Z,7.19
2019-02-21T00:11:56.712Z,7.28
2019-02-21T00:12:56.856Z,7.21
2019-02-21T00:13:57.054Z,7.21
2019-02-21T00:14:57.059Z,7.24
2019-02-21T00:15:57.185Z,7.25
2019-02-21T00:16:57.337Z,7.24
2019-02-21T00:17:57.466Z,7.21
2019-02-21T00:18:57.585Z,7.28
2019-02-21T00:19:57.714Z,7.33
2019-02-21T00:20:57.863Z,7.29
2019-02-21T00:21:58.029Z,7.24
2019-02-21T00:22:58.160Z,7.28
2019-02-21T00:23:58.282Z,7.28
2019-02-21T00:24:58.436Z,7.36
2019-02-21T00:25:58.563Z,7.33
2019-02-21T00:26:58.687Z,7.25
2019-02-21T00:27:58.806Z,7.31
2019-02-21T00:28:58.936Z,7.21
2019-02-21T00:29:59.066Z,7.25
2019-02-21T00:30:59.205Z,7.34
2019-02-21T00:31:59.487Z,7.29
2019-02-21T00:32:59.472Z,7.36
2019-02-21T00:33:59.599Z,7.34
2019-02-21T00:34:59.728Z,7.25
2019-02-21T00:35:59.936Z,7.29
2019-02-21T00:37:00.072Z,7.34
2019-02-21T00:38:00.081Z,7.26
2019-02-21T00:39:00.204Z,7.26
2019-02-21T00:40:00.377Z,7.26
2019-02-21T00:41:00.464Z,7.26
2019-02-21T00:42:00.593Z,7.25
2019-02-21T00:43:00.727Z,7.18
2019-02-21T00:44:00.849Z,7.18
2019-02-21T00:45:00.983Z,7.16
2019-02-21T00:46:01.107Z,7.18
2019-02-21T00:47:01.255Z,7.13
2019-02-21T00:48:01.402Z,7.10
2019-02-21T00:49:01.520Z,7.08
2019-02-21T00:50:01.650Z,7.08
2019-02-21T00:51:01.781Z,7.08
2019-02-21T00:52:02.805Z,7.13
2019-02-21T00:53:02.035Z,7.18
2019-02-21T00:54:10.875Z,7.10
2019-02-21T00:55:02.350Z,7.04
2019-02-21T00:56:02.499Z,7.21
2019-02-21T00:57:02.616Z,7.08
2019-02-21T00:58:02.777Z,7.08
2019-02-21T00:59:02.902Z,7.07
2019-02-21T01:00:03.027Z,6.99
2019-02-21T01:01:03.149Z,7.07
2019-02-21T01:02:03.281Z,6.99
2019-02-21T01:03:03.403Z,6.96
2019-02-21T01:04:03.553Z,7.01
2019-02-21T01:05:03.668Z,6.97
2019-02-21T01:06:03.796Z,6.96
2019-02-21T01:07:03.919Z,6.92
2019-02-21T01:08:04.048Z,6.96
2019-02-21T01:09:04.168Z,6.99
2019-02-21T01:10:04.295Z,6.96
2019-02-21T01:11:04.448Z,7.00
2019-02-21T01:12:04.572Z,6.93
2019-02-21T01:13:04.700Z,6.97
2019-02-21T01:14:04.825Z,6.93
2019-02-21T01:15:04.977Z,6.93
2019-02-21T01:16:05.323Z,6.96
2019-02-21T01:17:05.462Z,6.89
2019-02-21T01:18:05.489Z,6.92
2019-02-21T01:19:05.508Z,6.89
2019-02-21T01:20:05.625Z,6.86
2019-02-21T01:21:05.752Z,6.81
2019-02-21T01:22:05.875Z,6.85
2019-02-21T01:23:06.026Z,6.85
2019-02-21T01:24:06.945Z,6.86
2019-02-21T01:25:06.269Z,6.79
2019-02-21T01:26:08.619Z,6.74
2019-02-21T01:27:06.497Z,6.73
2019-02-21T01:28:06.618Z,6.73
2019-02-21T01:29:06.745Z,6.79
2019-02-21T01:30:08.526Z,6.86
2019-02-21T01:31:07.828Z,6.73
2019-02-21T01:32:07.109Z,6.73
2019-02-21T01:33:08.675Z,6.70
2019-02-21T01:34:07.442Z,6.73
2019-02-21T01:35:08.831Z,6.71
2019-02-21T01:36:07.622Z,6.83
2019-02-21T01:37:07.749Z,6.81
2019-02-21T01:38:07.889Z,6.73
2019-02-21T01:39:09.585Z,6.74
2019-02-21T01:40:08.087Z,6.67
2019-02-21T01:41:08.212Z,6.78
2019-02-21T01:42:08.593Z,6.74
2019-02-21T01:43:09.263Z,6.78
2019-02-21T01:45:41.892Z,6.70
2019-02-21T01:46:42.147Z,6.63
2019-02-21T01:47:42.164Z,6.67
2019-02-21T01:48:42.383Z,6.68
2019-02-21T01:49:42.058Z,6.61
2019-02-21T01:50:41.943Z,6.61
2019-02-21T01:51:42.383Z,6.78
2019-02-21T01:52:42.254Z,6.68
2019-02-21T01:53:42.383Z,6.74
2019-02-21T01:54:43.001Z,6.71
2019-02-21T01:55:42.625Z,6.71
2019-02-21T01:56:42.762Z,6.71
2019-02-21T01:57:42.878Z,6.63
2019-02-21T01:58:42.996Z,6.71
2019-02-21T01:59:43.124Z,6.60
2019-02-21T02:00:43.252Z,6.71
2019-02-21T02:01:43.373Z,6.63
2019-02-21T02:02:43.538Z,6.55
2019-02-21T02:03:43.666Z,6.61
2019-02-21T02:04:43.811Z,6.61
2019-02-21T02:05:43.919Z,6.60
2019-02-21T02:06:44.348Z,6.50
2019-02-21T02:07:44.761Z,6.49
2019-02-21T02:10:17.001Z,6.52
2019-02-21T02:11:18.941Z,6.49
2019-02-21T02:12:17.153Z,6.53
2019-02-21T02:13:24.542Z,6.50
2019-02-21T02:14:17.835Z,6.52
2019-02-21T02:15:17.959Z,6.46
2019-02-21T02:16:17.662Z,6.42
2019-02-21T02:17:17.961Z,6.45
2019-02-21T02:18:17.724Z,6.47
2019-02-21T02:19:17.984Z,6.42
2019-02-21T02:20:18.203Z,6.43
2019-02-21T02:21:18.877Z,6.43
2019-02-21T02:22:18.509Z,6.42
2019-02-21T02:23:19.456Z,6.45
2019-02-21T02:24:19.177Z,6.42
2019-02-21T02:25:18.592Z,6.53
2019-02-21T02:26:18.715Z,6.43
2019-02-21T02:27:19.087Z,6.47
2019-02-21T02:28:19.254Z,6.42
2019-02-21T02:29:19.423Z,6.47
2019-02-21T02:30:19.103Z,6.50
2019-02-21T02:31:23.279Z,6.53
2019-02-21T02:32:19.443Z,6.52
2019-02-21T02:33:19.985Z,6.35
2019-02-21T02:34:20.320Z,6.45
2019-02-21T02:35:19.712Z,6.46
2019-02-21T02:36:20.529Z,6.34
2019-02-21T02:37:20.445Z,6.34
2019-02-21T02:38:20.241Z,6.38
2019-02-21T02:39:20.264Z,6.34
2019-02-21T02:40:20.890Z,6.32
2019-02-21T02:41:20.506Z,6.37
2019-02-21T02:42:20.633Z,6.42
2019-02-21T02:43:21.264Z,6.37
2019-02-21T02:44:21.127Z,6.34
2019-02-21T02:45:20.981Z,6.31
2019-02-21T02:46:21.251Z,6.28
2019-02-21T02:47:21.950Z,6.34
2019-02-21T02:48:21.352Z,6.25
2019-02-21T02:49:21.876Z,6.30
2019-02-21T02:50:21.694Z,6.28
2019-02-21T02:51:22.120Z,6.34
2019-02-21T02:52:22.469Z,6.31
2019-02-21T02:53:22.263Z,6.38
2019-02-21T02:54:23.337Z,6.37
2019-02-21T02:55:22.640Z,6.32
2019-02-21T02:56:22.793Z,6.31
2019-02-21T02:57:22.872Z,6.35
2019-02-21T02:58:22.873Z,6.34
2019-02-21T02:59:22.913Z,6.34
2019-02-21T03:00:23.137Z,6.35
2019-02-21T03:01:34.372Z,6.32
2019-02-21T03:02:24.093Z,6.28
2019-02-21T03:03:23.463Z,6.37
2019-02-21T03:04:24.126Z,6.37
2019-02-21T03:05:23.748Z,6.27
2019-02-21T03:06:24.008Z,6.31
2019-02-21T03:07:24.407Z,6.35
2019-02-21T03:08:24.324Z,6.34
2019-02-21T03:09:24.328Z,6.27
2019-02-21T03:10:24.953Z,6.27
2019-02-21T03:11:24.897Z,6.28
2019-02-21T03:12:24.746Z,6.32
2019-02-21T03:13:24.766Z,6.31
2019-02-21T03:14:24.926Z,6.30
2019-02-21T03:15:25.023Z,6.30
2019-02-21T03:16:25.151Z,6.32
2019-02-21T03:17:26.723Z,6.16
2019-02-21T03:18:25.371Z,6.30
2019-02-21T03:19:27.096Z,6.31
2019-02-21T03:20:26.896Z,6.28
2019-02-21T03:21:25.742Z,6.15
2019-02-21T03:22:34.199Z,6.28
2019-02-21T03:23:28.024Z,6.30
2019-02-21T03:24:28.151Z,6.24
2019-02-21T03:25:26.750Z,6.21
2019-02-21T03:26:28.393Z,6.18
2019-02-21T03:27:27.735Z,6.09
2019-02-21T03:30:06.206Z,5.91
2019-02-21T03:31:05.176Z,5.91
2019-02-21T03:32:05.902Z,5.87
2019-02-21T03:33:05.309Z,5.73
2019-02-21T03:35:39.080Z,5.73
2019-02-21T03:36:38.615Z,5.72
2019-02-21T03:37:38.083Z,5.85
2019-02-21T03:38:38.616Z,5.90
2019-02-21T03:41:16.785Z,5.87
2019-02-21T03:42:14.584Z,5.97
2019-02-21T03:44:52.805Z,6.02
2019-02-21T03:45:52.291Z,6.02
2019-02-21T03:46:51.248Z,6.06
2019-02-21T03:47:51.127Z,6.08
2019-02-21T03:48:52.986Z,5.97
2019-02-21T03:49:53.204Z,6.03
2019-02-21T03:50:53.424Z,6.03
2019-02-21T03:51:52.919Z,6.05
2019-02-21T03:54:29.423Z,6.08
2019-02-21T03:55:30.477Z,5.98
2019-02-21T03:56:32.158Z,6.05
2019-02-21T03:57:30.863Z,6.05
2019-02-21T03:58:31.563Z,6.03
2019-02-21T03:59:33.312Z,6.06
2019-02-21T04:00:30.304Z,5.98
2019-02-21T04:01:32.897Z,6.08
2019-02-21T04:02:32.383Z,5.98
2019-02-21T04:03:31.362Z,6.02
2019-02-21T04:04:30.927Z,6.03
2019-02-21T04:07:09.260Z,6.05
2019-02-21T04:08:06.167Z,6.05
2019-02-21T04:09:07.151Z,6.02
2019-02-21T04:10:07.016Z,6.06
2019-02-21T04:12:43.240Z,6.05
2019-02-21T04:13:42.075Z,6.02
2019-02-21T04:14:41.725Z,5.93
2019-02-21T04:15:42.830Z,5.98
2019-02-21T04:16:40.691Z,5.94
2019-02-21T04:17:45.111Z,5.95
2019-02-21T04:18:41.013Z,5.97
2019-02-21T04:19:41.182Z,6.02
2019-02-21T04:20:41.315Z,5.98
2019-02-21T04:21:43.801Z,5.98
2019-02-21T04:22:41.607Z,5.94
2019-02-21T04:23:42.640Z,5.94
2019-02-21T04:24:42.654Z,5.94
2019-02-21T04:25:42.024Z,6.05
2019-02-21T04:26:43.587Z,5.97
2019-02-21T04:27:53.446Z,5.97
2019-02-21T04:28:45.823Z,5.98
2019-02-21T04:29:42.549Z,5.91
2019-02-21T04:30:42.677Z,6.02
2019-02-21T04:31:42.804Z,6.05
2019-02-21T04:32:42.939Z,6.03
2019-02-21T04:33:43.416Z,6.06
2019-02-21T04:34:43.191Z,6.05
2019-02-21T04:35:45.418Z,6.08
2019-02-21T04:36:49.113Z,6.05
2019-02-21T04:37:43.500Z,6.08
2019-02-21T04:38:43.623Z,6.00
2019-02-21T04:39:43.903Z,6.03
2019-02-21T04:40:48.541Z,6.05
2019-02-21T04:41:47.140Z,6.00
2019-02-21T04:42:44.159Z,5.98
2019-02-21T04:43:47.858Z,5.98
2019-02-21T04:44:44.368Z,6.05
2019-02-21T04:45:46.679Z,6.05
2019-02-21T04:46:44.920Z,5.98
2019-02-21T04:47:45.294Z,6.03
2019-02-21T04:48:45.389Z,6.03
2019-02-21T04:49:45.779Z,6.05
2019-02-21T04:50:45.801Z,6.11
2019-02-21T04:51:46.364Z,5.97
2019-02-21T04:52:45.259Z,6.06
2019-02-21T04:53:46.159Z,6.00
2019-02-21T04:54:45.862Z,6.05
2019-02-21T04:55:46.263Z,5.98
2019-02-21T04:56:46.497Z,6.05
2019-02-21T04:57:45.934Z,5.95
2019-02-21T04:58:46.816Z,5.88
2019-02-21T04:59:46.200Z,5.97
2019-02-21T05:00:47.190Z,5.95
2019-02-21T05:01:46.968Z,5.93
2019-02-21T05:02:46.700Z,5.94
2019-02-21T05:03:46.909Z,5.95
2019-02-21T05:04:47.277Z,5.87
2019-02-21T05:05:47.075Z,5.91
2019-02-21T05:06:47.555Z,5.75
2019-02-21T05:07:47.617Z,5.80
2019-02-21T05:08:47.921Z,5.84
2019-02-21T05:09:57.334Z,5.82
2019-02-21T05:10:47.810Z,5.72
2019-02-21T05:11:48.057Z,5.75
2019-02-21T05:12:48.383Z,5.70
2019-02-21T05:13:48.753Z,5.69
2019-02-21T05:14:48.111Z,5.66
2019-02-21T05:15:48.605Z,5.69
2019-02-21T05:16:48.364Z,5.69
2019-02-21T05:17:48.859Z,5.57
2019-02-21T05:18:48.624Z,5.65
2019-02-21T05:19:48.732Z,5.70
2019-02-21T05:20:48.908Z,5.67
2019-02-21T05:21:49.005Z,5.50
2019-02-21T05:22:49.141Z,5.69
2019-02-21T05:23:49.253Z,5.52
2019-02-21T05:24:49.383Z,5.65
2019-02-21T05:25:49.519Z,5.52
2019-02-21T05:26:49.643Z,5.61
2019-02-21T05:27:52.264Z,5.52
2019-02-21T05:30:30.639Z,5.54
2019-02-21T05:31:25.369Z,5.52
2019-02-21T05:32:25.516Z,5.48
2019-02-21T05:33:25.636Z,5.48
2019-02-21T05:34:25.764Z,5.41
2019-02-21T05:35:25.903Z,5.36
2019-02-21T05:36:26.044Z,5.27
2019-02-21T05:37:26.158Z,5.22
2019-02-21T05:38:26.266Z,5.29
2019-02-21T05:39:26.426Z,5.36
2019-02-21T05:40:28.421Z,5.32
2019-02-21T05:41:26.678Z,5.37
2019-02-21T05:42:26.799Z,5.39
2019-02-21T05:43:26.950Z,5.34
2019-02-21T05:44:27.048Z,5.43
2019-02-21T05:45:27.183Z,5.47
2019-02-21T05:46:27.373Z,5.40
2019-02-21T05:47:27.417Z,5.37
2019-02-21T05:48:27.545Z,5.34
2019-02-21T05:49:27.697Z,5.44
2019-02-21T05:50:27.813Z,5.41
2019-02-21T05:51:27.946Z,5.36
2019-02-21T05:52:28.063Z,5.36
2019-02-21T05:53:28.233Z,5.34
2019-02-21T05:54:28.346Z,5.33
2019-02-21T05:55:28.470Z,5.30
2019-02-21T05:56:28.596Z,5.27
2019-02-21T05:57:28.741Z,5.27
2019-02-21T05:58:28.886Z,5.29
2019-02-21T05:59:28.985Z,5.22
2019-02-21T06:00:29.129Z,5.24
2019-02-21T06:01:29.277Z,5.30
2019-02-21T06:02:29.398Z,5.25
2019-02-21T06:03:29.510Z,5.29
2019-02-21T06:04:29.650Z,5.22
2019-02-21T06:05:29.772Z,5.24
2019-02-21T06:06:29.899Z,5.27
2019-02-21T06:07:30.031Z,5.15
2019-02-21T06:08:30.173Z,5.25
2019-02-21T06:09:30.284Z,5.16
2019-02-21T06:10:30.412Z,5.22
2019-02-21T06:11:30.550Z,5.24
2019-02-21T06:12:33.518Z,5.22
2019-02-21T06:13:30.793Z,5.21
2019-02-21T06:14:30.920Z,5.22
2019-02-21T06:15:31.043Z,5.32
2019-02-21T06:16:32.792Z,5.24
2019-02-21T06:17:31.292Z,5.22
2019-02-21T06:18:31.442Z,5.22
2019-02-21T06:19:31.574Z,5.21
2019-02-21T06:20:33.678Z,5.22
2019-02-21T06:21:31.825Z,5.21
2019-02-21T06:22:31.941Z,5.21
2019-02-21T06:23:32.069Z,5.24
2019-02-21T06:24:32.191Z,5.24
2019-02-21T06:25:32.352Z,5.22
2019-02-21T06:26:32.463Z,5.22
2019-02-21T06:27:34.455Z,5.22
2019-02-21T06:28:32.725Z,5.34
2019-02-21T06:29:34.108Z,5.19
2019-02-21T06:30:32.969Z,5.25
2019-02-21T06:31:33.107Z,5.32
2019-02-21T06:32:33.253Z,5.29
2019-02-21T06:33:33.363Z,5.24
2019-02-21T06:34:33.841Z,5.21
2019-02-21T06:35:33.629Z,5.21
2019-02-21T06:36:33.764Z,5.15
2019-02-21T06:37:33.882Z,5.21
2019-02-21T06:38:34.052Z,5.27
2019-02-21T06:39:34.304Z,5.27
2019-02-21T06:40:36.427Z,5.16
2019-02-21T06:41:34.392Z,5.21
2019-02-21T06:42:34.988Z,5.18
2019-02-21T06:43:34.638Z,5.16
2019-02-21T06:44:37.910Z,5.18
2019-02-21T06:45:36.142Z,5.15
2019-02-21T06:46:35.019Z,5.25
2019-02-21T06:47:35.137Z,5.19
2019-02-21T06:48:35.263Z,5.21
2019-02-21T06:49:35.400Z,5.30
2019-02-21T06:50:35.517Z,5.32
2019-02-21T06:51:35.631Z,5.37
2019-02-21T06:52:35.768Z,5.39
2019-02-21T06:53:35.888Z,5.30
2019-02-21T06:54:36.013Z,5.39
2019-02-21T06:55:36.134Z,5.40
2019-02-21T06:56:36.252Z,5.43
2019-02-21T06:57:36.385Z,5.39
2019-02-21T06:58:36.519Z,5.52
2019-02-21T06:59:43.383Z,5.58
2019-02-21T07:00:36.759Z,5.47
2019-02-21T07:01:36.880Z,5.47
2019-02-21T07:02:37.009Z,5.55
2019-02-21T07:03:37.129Z,5.55
2019-02-21T07:04:37.274Z,5.61
2019-02-21T07:05:37.378Z,5.58
2019-02-21T07:06:39.243Z,5.51
2019-02-21T07:07:37.644Z,5.57
2019-02-21T07:08:40.026Z,5.61
2019-02-21T07:09:37.873Z,5.51
2019-02-21T07:10:37.998Z,5.51
2019-02-21T07:11:38.126Z,5.54
2019-02-21T07:12:38.251Z,5.48
2019-02-21T07:13:38.375Z,5.54
2019-02-21T07:14:38.502Z,5.66
2019-02-21T07:15:42.349Z,5.65
2019-02-21T07:16:38.733Z,5.70
2019-02-21T07:17:48.891Z,5.66
2019-02-21T07:18:42.835Z,5.73
2019-02-21T07:19:39.079Z,5.72
2019-02-21T07:20:39.846Z,5.72
2019-02-21T07:21:44.197Z,5.70
2019-02-21T07:22:39.458Z,5.80
2019-02-21T07:23:43.453Z,5.73
2019-02-21T07:24:39.705Z,5.80
2019-02-21T07:25:39.824Z,5.82
2019-02-21T07:26:39.949Z,5.67
2019-02-21T07:27:40.083Z,5.82
2019-02-21T07:28:41.630Z,5.98
2019-02-21T07:29:42.441Z,5.76
2019-02-21T07:30:42.886Z,5.90
2019-02-21T07:31:40.593Z,5.93
2019-02-21T07:32:40.711Z,5.90
2019-02-21T07:33:40.861Z,5.88
2019-02-21T07:34:40.979Z,5.88
2019-02-21T07:35:41.104Z,5.80
2019-02-21T07:36:41.241Z,5.79
2019-02-21T07:37:42.269Z,5.87
2019-02-21T07:38:41.493Z,5.90
2019-02-21T07:39:41.619Z,5.87
2019-02-21T07:40:41.741Z,5.97
2019-02-21T07:41:41.878Z,5.88
2019-02-21T07:42:41.992Z,5.97
2019-02-21T07:43:42.120Z,5.97
2019-02-21T07:44:42.261Z,5.93
2019-02-21T07:45:42.368Z,5.90
2019-02-21T07:46:42.498Z,5.90
2019-02-21T07:47:42.626Z,5.98
2019-02-21T07:48:42.750Z,6.05
2019-02-21T07:49:42.880Z,6.03
2019-02-21T07:50:43.005Z,5.98
2019-02-21T07:51:43.126Z,6.00
2019-02-21T07:52:43.248Z,6.03
2019-02-21T07:53:43.382Z,6.02
2019-02-21T07:54:43.522Z,6.08
2019-02-21T07:55:43.647Z,6.12
2019-02-21T07:56:43.772Z,6.09
2019-02-21T07:57:43.905Z,6.05
2019-02-21T07:58:44.028Z,6.15
2019-02-21T07:59:44.159Z,6.08
2019-02-21T08:00:44.294Z,6.09
2019-02-21T08:01:44.423Z,6.16
2019-02-21T08:02:44.541Z,6.09
2019-02-21T08:03:48.157Z,6.11
2019-02-21T08:04:44.805Z,6.08
2019-02-21T08:05:44.918Z,6.13
2019-02-21T08:06:45.045Z,6.15
2019-02-21T08:07:45.160Z,6.05
2019-02-21T08:08:45.293Z,6.19
2019-02-21T08:09:45.418Z,6.16
2019-02-21T08:10:45.615Z,6.09
2019-02-21T08:11:45.674Z,6.13
2019-02-21T08:12:45.832Z,6.13
2019-02-21T08:13:45.949Z,6.09
2019-02-21T08:14:46.085Z,6.09
2019-02-21T08:15:46.221Z,6.13
2019-02-21T08:16:46.368Z,6.09
2019-02-21T08:17:46.481Z,6.06
2019-02-21T08:18:46.603Z,5.93
2019-02-21T08:19:46.743Z,5.72
2019-02-21T08:20:46.867Z,5.69
2019-02-21T08:21:47.076Z,5.84
2019-02-21T08:22:47.174Z,5.72
2019-02-21T08:23:50.589Z,5.73
2019-02-21T08:24:47.408Z,5.70
2019-02-21T08:25:47.553Z,5.69
2019-02-21T08:26:47.667Z,5.54
2019-02-21T08:27:47.783Z,5.54
2019-02-21T08:28:47.909Z,5.55
2019-02-21T08:29:48.045Z,5.66
2019-02-21T08:30:48.190Z,5.79
2019-02-21T08:31:48.313Z,5.82
2019-02-21T08:32:48.440Z,5.88
2019-02-21T08:33:57.929Z,5.95
2019-02-21T08:34:48.688Z,6.06
2019-02-21T08:35:48.815Z,6.12
2019-02-21T08:36:48.957Z,6.11
2019-02-21T08:37:49.069Z,6.13
2019-02-21T08:38:49.206Z,6.15
2019-02-21T08:39:49.335Z,6.18
2019-02-21T08:40:49.463Z,6.19
2019-02-21T08:41:49.607Z,6.31
2019-02-21T08:42:49.734Z,6.40
2019-02-21T08:43:49.857Z,6.32
2019-02-21T08:44:49.985Z,6.49
2019-02-21T08:45:50.110Z,6.34
2019-02-21T08:46:50.249Z,6.37
2019-02-21T08:47:50.381Z,6.47
2019-02-21T08:48:50.528Z,6.47
2019-02-21T08:49:50.657Z,6.53
2019-02-21T08:50:50.788Z,6.37
2019-02-21T08:51:50.939Z,6.43
2019-02-21T08:52:51.055Z,6.45
2019-02-21T08:53:51.195Z,6.52
2019-02-21T08:54:59.872Z,6.42
2019-02-21T08:55:51.456Z,6.61
2019-02-21T08:56:51.575Z,6.65
2019-02-21T08:57:51.715Z,6.65
2019-02-21T08:58:51.825Z,6.65
2019-02-21T08:59:51.953Z,6.63
2019-02-21T09:00:54.321Z,6.63
2019-02-21T09:01:52.188Z,6.65
2019-02-21T09:02:52.321Z,6.57
2019-02-21T09:03:52.434Z,6.67
2019-02-21T09:04:52.566Z,6.68
2019-02-21T09:05:52.687Z,6.74
2019-02-21T09:06:52.813Z,6.74
2019-02-21T09:07:52.932Z,6.81
2019-02-21T09:08:53.140Z,6.82
2019-02-21T09:09:53.184Z,6.79
2019-02-21T09:10:53.318Z,6.75
2019-02-21T09:11:53.948Z,6.78
2019-02-21T09:12:53.582Z,6.64
2019-02-21T09:13:55.770Z,6.71
2019-02-21T09:14:53.861Z,6.65
2019-02-21T09:15:55.851Z,6.74
2019-02-21T09:16:54.112Z,6.75
2019-02-21T09:17:54.641Z,6.78
2019-02-21T09:19:03.381Z,6.75
2019-02-21T09:19:54.498Z,6.64
2019-02-21T09:20:54.620Z,6.65
2019-02-21T09:21:54.839Z,6.64
2019-02-21T09:22:54.883Z,6.75
2019-02-21T09:23:56.694Z,6.68
2019-02-21T09:24:55.197Z,6.74
2019-02-21T09:25:55.192Z,6.68
2019-02-21T09:26:57.078Z,6.78
2019-02-21T09:27:55.461Z,6.79
2019-02-21T09:28:55.580Z,6.81
2019-02-21T09:29:55.706Z,6.75
2019-02-21T09:30:55.859Z,6.60
2019-02-21T09:31:55.975Z,6.73
2019-02-21T09:32:56.094Z,6.78
2019-02-21T09:33:56.240Z,6.78
2019-02-21T09:34:58.657Z,6.71
2019-02-21T09:35:56.884Z,6.86
2019-02-21T09:36:56.619Z,6.93
2019-02-21T09:37:56.739Z,6.75
2019-02-21T09:38:56.868Z,6.97
2019-02-21T09:39:56.999Z,6.99
2019-02-21T09:40:57.125Z,7.08
2019-02-21T09:41:57.248Z,7.06
2019-02-21T09:42:57.377Z,7.10
2019-02-21T09:43:57.509Z,7.11
2019-02-21T09:44:57.647Z,7.08
2019-02-21T09:45:57.768Z,7.24
2019-02-21T09:46:57.906Z,7.16
2019-02-21T09:47:58.013Z,7.24
2019-02-21T09:48:58.144Z,7.33
2019-02-21T09:49:58.271Z,7.34
2019-02-21T09:50:58.440Z,7.36
2019-02-21T09:51:58.537Z,7.43
2019-02-21T09:52:58.906Z,7.58
2019-02-21T09:53:58.789Z,7.66
2019-02-21T09:54:58.931Z,7.81
2019-02-21T09:55:59.065Z,7.80
2019-02-21T09:56:59.206Z,7.80
2019-02-21T09:57:59.323Z,7.80
2019-02-21T09:58:59.483Z,7.84
2019-02-21T09:59:59.605Z,7.87
2019-02-21T10:00:59.739Z,7.84
2019-02-21T10:01:59.871Z,7.95
2019-02-21T10:03:00.017Z,7.96
2019-02-21T10:04:00.155Z,7.96
2019-02-21T10:05:05.201Z,7.92
2019-02-21T10:06:00.396Z,7.83
2019-02-21T10:07:00.574Z,7.87
2019-02-21T10:08:00.702Z,7.91
2019-02-21T10:09:00.829Z,7.91
2019-02-21T10:10:01.265Z,7.96
2019-02-21T10:11:01.106Z,7.99
2019-02-21T10:12:01.229Z,8.01
2019-02-21T10:13:01.381Z,8.06
2019-02-21T10:14:01.503Z,8.13
2019-02-21T10:15:01.629Z,8.05
2019-02-21T10:16:04.501Z,8.04
2019-02-21T10:17:01.940Z,8.10
2019-02-21T10:18:02.050Z,8.14
2019-02-21T10:19:02.190Z,8.17
2019-02-21T10:20:04.218Z,8.17
2019-02-21T10:21:02.446Z,8.19
2019-02-21T10:22:04.465Z,8.13
2019-02-21T10:23:02.717Z,8.20
2019-02-21T10:24:02.859Z,8.20
2019-02-21T10:25:03.065Z,8.19
2019-02-21T10:26:03.071Z,8.21
2019-02-21T10:27:03.186Z,8.29
2019-02-21T10:28:03.341Z,8.28
2019-02-21T10:29:03.460Z,8.34
2019-02-21T10:30:03.590Z,8.31
2019-02-21T10:31:03.720Z,8.28
2019-02-21T10:32:03.890Z,8.29
2019-02-21T10:33:04.000Z,8.39
2019-02-21T10:34:04.120Z,8.46
2019-02-21T10:35:04.264Z,8.59
2019-02-21T10:36:04.432Z,8.68
2019-02-21T10:37:04.546Z,8.71
2019-02-21T10:38:04.682Z,8.85
2019-02-21T10:39:04.810Z,8.80
2019-02-21T10:40:04.959Z,9.03
2019-02-21T10:41:05.083Z,8.95
2019-02-21T10:42:05.222Z,8.99
2019-02-21T10:43:05.354Z,9.14
2019-02-21T10:44:05.515Z,9.06
2019-02-21T10:45:05.636Z,9.41
2019-02-21T10:46:05.771Z,9.37
2019-02-21T10:47:05.908Z,9.52
2019-02-21T10:48:06.042Z,9.72
2019-02-21T10:49:06.168Z,9.91
2019-02-21T10:50:06.330Z,9.94
2019-02-21T10:51:06.443Z,10.01
2019-02-21T10:52:06.577Z,10.16
2019-02-21T10:53:06.706Z,10.14
2019-02-21T10:54:06.843Z,10.12
2019-02-21T10:55:06.971Z,10.17
2019-02-21T10:56:07.101Z,10.24
2019-02-21T10:57:07.227Z,10.27
2019-02-21T10:58:07.362Z,10.46
2019-02-21T10:59:07.523Z,10.67
2019-02-21T11:00:07.658Z,10.87
2019-02-21T11:01:07.779Z,10.72
2019-02-21T11:02:07.905Z,10.68
2019-02-21T11:03:08.034Z,10.73
2019-02-21T11:04:08.176Z,10.48
2019-02-21T11:05:08.322Z,10.43
2019-02-21T11:06:08.449Z,10.73
2019-02-21T11:07:08.582Z,10.82
2019-02-21T11:08:08.725Z,11.12
2019-02-21T11:09:08.840Z,11.40
2019-02-21T11:10:08.975Z,11.45
2019-02-21T11:11:09.106Z,11.45
2019-02-21T11:12:09.231Z,11.52
2019-02-21T11:13:09.364Z,11.54
2019-02-21T11:14:09.492Z,11.55
2019-02-21T11:15:09.621Z,11.54
2019-02-21T11:16:09.757Z,11.77
2019-02-21T11:17:09.887Z,12.03
2019-02-21T11:18:10.025Z,12.04
2019-02-21T11:19:10.167Z,12.46
2019-02-21T11:20:10.294Z,12.80
2019-02-21T11:21:10.430Z,13.14
2019-02-21T11:22:10.563Z,13.38
2019-02-21T11:23:10.699Z,13.30
2019-02-21T11:24:10.833Z,13.43
2019-02-21T11:25:10.972Z,13.30
2019-02-21T11:26:11.106Z,13.54
2019-02-21T11:27:11.240Z,13.53
2019-02-21T11:28:11.377Z,13.55
2019-02-21T11:29:11.518Z,13.79
2019-02-21T11:30:11.657Z,13.98
2019-02-21T11:31:11.794Z,13.97
2019-02-21T11:32:11.935Z,13.93
2019-02-21T11:33:12.057Z,13.64
2019-02-21T11:34:12.187Z,13.90
2019-02-21T11:35:12.323Z,13.57
2019-02-21T11:36:12.458Z,13.40
2019-02-21T11:37:12.592Z,13.32
2019-02-21T11:38:12.736Z,13.46
2019-02-21T11:39:12.863Z,13.46
2019-02-21T11:40:13.001Z,13.40
2019-02-21T11:41:13.140Z,13.16
2019-02-21T11:42:13.282Z,13.16
2019-02-21T11:43:13.405Z,13.06
2019-02-21T11:44:13.540Z,12.90
2019-02-21T11:45:13.674Z,12.73
2019-02-21T11:46:13.813Z,12.63
2019-02-21T11:47:13.961Z,12.63
2019-02-21T11:48:14.095Z,12.63
2019-02-21T11:49:14.236Z,12.62
2019-02-21T11:50:14.398Z,12.54
2019-02-21T11:51:14.489Z,12.36
2019-02-21T11:52:14.636Z,12.43
2019-02-21T11:53:14.756Z,12.69
2019-02-21T11:54:26.208Z,13.27
2019-02-21T11:55:15.032Z,13.63
2019-02-21T11:56:15.848Z,13.97
2019-02-21T11:57:18.565Z,14.15
2019-02-21T11:58:15.490Z,14.01
2019-02-21T11:59:16.219Z,13.86
2019-02-21T12:00:15.631Z,14.08
2019-02-21T12:01:15.801Z,13.61
2019-02-21T12:02:15.917Z,13.40
2019-02-21T12:03:16.059Z,13.02
2019-02-21T12:04:16.194Z,12.90
2019-02-21T12:05:17.849Z,12.87
2019-02-21T12:06:16.476Z,12.86
2019-02-21T12:07:16.632Z,12.90
2019-02-21T12:08:16.745Z,12.73
2019-02-21T12:09:16.899Z,12.71
2019-02-21T12:10:17.030Z,12.66
2019-02-21T12:11:17.171Z,12.58
2019-02-21T12:12:17.290Z,12.43
2019-02-21T12:13:17.449Z,12.46
2019-02-21T12:14:17.592Z,12.46
2019-02-21T12:15:17.720Z,12.46
2019-02-21T12:16:17.853Z,12.43
2019-02-21T12:17:18.004Z,12.38
2019-02-21T12:18:18.124Z,12.21
2019-02-21T12:19:18.264Z,12.11
2019-02-21T12:20:18.448Z,12.05
2019-02-21T12:21:18.546Z,11.91
2019-02-21T12:22:18.686Z,11.79
2019-02-21T12:23:18.814Z,11.84
2019-02-21T12:24:18.961Z,11.85
2019-02-21T12:25:19.091Z,11.88
2019-02-21T12:26:19.236Z,11.71
2019-02-21T12:27:19.366Z,11.80
2019-02-21T12:28:19.495Z,11.80
2019-02-21T12:29:19.629Z,11.74
2019-02-21T12:30:19.773Z,11.89
2019-02-21T12:31:19.981Z,12.15
2019-02-21T12:32:20.068Z,12.48
2019-02-21T12:33:20.206Z,12.50
2019-02-21T12:34:20.331Z,12.51
2019-02-21T12:35:29.284Z,12.59
2019-02-21T12:36:20.630Z,12.71
2019-02-21T12:37:20.747Z,12.48
2019-02-21T12:38:20.888Z,12.76
2019-02-21T12:39:21.041Z,12.90
2019-02-21T12:40:21.157Z,13.16
2019-02-21T12:41:21.299Z,13.27
2019-02-21T12:42:21.434Z,13.54
2019-02-21T12:43:21.545Z,13.68
2019-02-21T12:44:21.669Z,13.96
2019-02-21T12:45:21.848Z,14.38
2019-02-21T12:46:21.974Z,14.41
2019-02-21T12:47:22.099Z,14.71
2019-02-21T12:48:22.242Z,15.07
2019-02-21T12:49:22.371Z,15.19
2019-02-21T12:50:22.496Z,14.79
2019-02-21T12:51:22.639Z,14.55
2019-02-21T12:52:22.765Z,14.49
2019-02-21T12:53:22.895Z,14.23
2019-02-21T12:54:24.755Z,14.15
2019-02-21T12:55:29.227Z,13.61
2019-02-21T12:56:23.318Z,13.45
2019-02-21T12:57:23.451Z,13.38
2019-02-21T12:58:23.572Z,13.32
2019-02-21T12:59:23.726Z,12.87
2019-02-21T13:00:23.837Z,12.81
2019-02-21T13:01:23.965Z,12.46
2019-02-21T13:02:24.106Z,12.51
2019-02-21T13:03:24.250Z,12.40
2019-02-21T13:04:24.394Z,12.29
2019-02-21T13:05:24.503Z,12.30
2019-02-21T13:06:24.665Z,12.36
2019-02-21T13:07:24.832Z,12.40
2019-02-21T13:08:24.972Z,12.38
2019-02-21T13:09:25.096Z,12.40
2019-02-21T13:10:25.248Z,12.29
2019-02-21T13:11:25.385Z,12.30
2019-02-21T13:12:25.506Z,12.18
2019-02-21T13:13:25.659Z,12.23
2019-02-21T13:14:25.796Z,12.15
2019-02-21T13:15:25.928Z,12.30
2019-02-21T13:16:26.047Z,12.26
2019-02-21T13:17:26.199Z,12.13
2019-02-21T13:18:26.324Z,12.05
2019-02-21T13:19:26.459Z,11.96
2019-02-21T13:20:26.618Z,11.91
2019-02-21T13:21:26.746Z,11.93
2019-02-21T13:22:26.903Z,11.79
2019-02-21T13:23:27.019Z,11.91
2019-02-21T13:24:27.142Z,11.91
2019-02-21T13:25:27.282Z,11.87
2019-02-21T13:26:27.408Z,11.84
2019-02-21T13:27:27.544Z,12.00
2019-02-21T13:28:27.666Z,11.95
2019-02-21T13:29:27.817Z,11.93
2019-02-21T13:30:28.060Z,12.07
2019-02-21T13:31:28.066Z,12.05